EHRD Airport Information

Runway Information
Runway 06 Length 7218 ft width 148 ft
Elevation -15 ft Threshold 656 ft Heading 56
Runway 24 Length 7218 ft Width 148 ft
Elevation -15 ft Threshold 656 ft Heading 235
Airport Frequencies
Type A/D Name SCHIPHOL Frequency 121.2 MHZ
Type APP Name APP Frequency 127.025 MHZ
Type ATIS Name ATIS Frequency 110.4 MHZ
Type GND Name GND Frequency 122.175 MHZ
Type TWR Name TWR Frequency 118.2 MHZ
Airport Navaids
Type NDB Name Rotterdam Frequency 351 KHZ
Type VOR-DME Name Rotterdam Frequency 110400 KHZ
Airport Weather Information & NOTAM
ADDS - METARS form results

(1511 UTC 11 August 2022)
Data provider http://aviationweather.gov/metar/data/
 
METAR text: EHRD 111455Z AUTO VRB05KT 9999 NCD 31/11 Q1020 NOSIG
Conditions at: EHRD (ROTTERDAM AIRPOR, NL) observed 1455 UTC 11 August 2022
Temperature: 31.0°C (88°F)
Dewpoint: 11.0°C (52°F) [RH = 29%]
Pressure (altimeter): 30.12 inches Hg (1020.0 mb)
Winds: variable direction winds at 6 MPH (5 knots; 2.6 m/s)
Visibility: 6 or more miles (10+ km)
Ceiling: at least 12,000 feet AGL
Clouds: sky clear below 12,000 feet AGL
Weather: no significant weather observed at this time

METAR text: EHRD 111425Z AUTO 05008KT 350V090 9999 NCD 31/10 Q1020 NOSIG
Conditions at: EHRD (ROTTERDAM AIRPOR, NL) observed 1425 UTC 11 August 2022
Temperature: 31.0°C (88°F)
Dewpoint: 10.0°C (50°F) [RH = 27%]
Pressure (altimeter): 30.12 inches Hg (1020.0 mb)
Winds: from the NE (50 degrees) at 9 MPH (8 knots; 4.1 m/s)
Visibility: 6 or more miles (10+ km)
Ceiling: at least 12,000 feet AGL
Clouds: sky clear below 12,000 feet AGL
Weather: no significant weather observed at this time

Forecast for: EHRD (ROTTERDAM AIRPOR, NL)
Text: TAF EHRD 111103Z 1112/1218 06008KT CAVOK
Forecast period: 1200 UTC 11 August 2022 to 1800 UTC 12 August 2022
Forecast type: FROM: standard forecast or significant change
Winds: from the ENE (60 degrees) at 9 MPH (8 knots; 4.1 m/s)
Visibility: 6 or more miles (10+ km)
Ceiling: unknown
Clouds: missing
Weather: NSW  (no significant weather)